Maurertown, Virginia
Current Conditions -  °F | °C
As of 2:15 PM on Thursday 23 Oct 2014 (Local Time) from KFRR Reporting Station
Scattered Clouds Scattered Clouds  
Wind Chill: 16°   Ceiling: Unl
Heat Index: 16°   Visibility: 10mi
Dew Point:   Wind: 12mph
Humidity: 52%   Direction: 320°NW
Pressure: 29.93"   Gusts: 25mph
Location:  38.93°N, 78.46°W
Report Text: KFRR 231815Z AUTO 32010G22KT 10SM SCT039 16/06 A2993 RMK AO1
Loading
Personal Weather Stations






























Interactive Weather Map
Tropical Storm Tracking
New forecast layout! Learn more

10-Day Weather Forecast

Advertisements
Track Severe Weather on mobile